createdAt,value
2023-03-20T00:00:13.544Z,9.22
2023-03-20T00:01:56.662Z,9.22
2023-03-20T00:03:21.076Z,9.22
2023-03-20T00:04:54.829Z,9.22
2023-03-20T00:06:41.879Z,9.24
2023-03-20T00:08:15.742Z,9.25
2023-03-20T00:09:49.366Z,9.26
2023-03-20T00:11:13.841Z,9.31
2023-03-20T00:12:38.340Z,9.33
2023-03-20T00:14:13.751Z,9.33
2023-03-20T00:15:36.624Z,9.33
2023-03-20T00:17:06.420Z,9.32
2023-03-20T00:18:41.800Z,9.31
2023-03-20T00:20:03.889Z,9.27
2023-03-20T00:21:47.990Z,9.32
2023-03-20T00:23:12.121Z,9.29
2023-03-20T00:24:57.134Z,9.30
2023-03-20T00:26:30.541Z,9.32
2023-03-20T00:28:04.526Z,9.33
2023-03-20T00:29:41.105Z,9.32
2023-03-20T00:31:17.470Z,9.29
2023-03-20T00:32:41.850Z,9.26
2023-03-20T00:34:13.126Z,9.24
2023-03-20T00:35:49.082Z,9.23
2023-03-20T00:37:17.936Z,9.24
2023-03-20T00:39:04.295Z,9.17
2023-03-20T00:40:29.387Z,9.24
2023-03-20T00:42:14.754Z,9.21
2023-03-20T00:43:37.765Z,9.16
2023-03-20T00:45:22.732Z,9.11
2023-03-20T00:46:47.521Z,9.05
2023-03-20T00:48:28.738Z,9.02
2023-03-20T00:49:51.088Z,8.96
2023-03-20T00:51:26.737Z,8.91
2023-03-20T00:52:48.752Z,8.87
2023-03-20T00:54:33.925Z,8.84
2023-03-20T00:55:58.265Z,8.83
2023-03-20T00:57:43.276Z,8.81
2023-03-20T00:59:07.310Z,8.78
2023-03-20T01:00:43.139Z,8.74
2023-03-20T01:02:28.807Z,8.70
2023-03-20T01:03:52.922Z,8.66
2023-03-20T01:05:16.920Z,8.55
2023-03-20T01:06:40.209Z,8.58
2023-03-20T01:08:02.049Z,8.47
2023-03-20T01:09:37.669Z,8.50
2023-03-20T01:11:01.365Z,8.44
2023-03-20T01:12:48.167Z,8.42
2023-03-20T01:14:21.433Z,8.40
2023-03-20T01:15:45.576Z,8.35
2023-03-20T01:17:18.940Z,8.28
2023-03-20T01:19:00.456Z,8.14
2023-03-20T01:20:41.796Z,8.19
2023-03-20T01:22:10.512Z,8.20
2023-03-20T01:23:44.000Z,8.21
2023-03-20T01:25:17.331Z,8.23
2023-03-20T01:27:05.667Z,8.22
2023-03-20T01:28:39.293Z,8.22
2023-03-20T01:30:04.159Z,8.24
2023-03-20T01:31:26.256Z,8.25
2023-03-20T01:32:59.551Z,8.24
2023-03-20T01:34:26.742Z,8.21
2023-03-20T01:35:50.876Z,8.18
2023-03-20T01:37:19.776Z,8.19
2023-03-20T01:39:05.006Z,8.17
2023-03-20T01:40:50.390Z,8.06
2023-03-20T01:42:12.287Z,8.11
2023-03-20T01:43:47.856Z,8.00
2023-03-20T01:45:12.477Z,8.06
2023-03-20T01:46:36.951Z,8.03
2023-03-20T01:48:08.325Z,8.02
2023-03-20T01:49:34.232Z,8.01
2023-03-20T01:51:10.437Z,8.04
2023-03-20T01:52:32.191Z,8.06
2023-03-20T01:53:54.760Z,8.07
2023-03-20T01:55:28.557Z,8.08
2023-03-20T01:57:15.886Z,8.06
2023-03-20T01:58:39.916Z,8.02
2023-03-20T02:00:01.691Z,7.98
2023-03-20T02:01:35.855Z,7.94
2023-03-20T02:03:09.632Z,7.91
2023-03-20T02:05:08.112Z,7.87
2023-03-20T02:06:45.304Z,7.85
2023-03-20T02:08:23.144Z,7.86
2023-03-20T02:09:57.440Z,7.86
2023-03-20T02:11:45.142Z,7.87
2023-03-20T02:13:18.592Z,7.88
2023-03-20T02:14:53.471Z,7.88
2023-03-20T02:16:59.929Z,7.87
2023-03-20T02:18:52.012Z,7.84
2023-03-20T02:20:27.741Z,7.84
2023-03-20T02:22:01.233Z,7.81
2023-03-20T02:23:34.446Z,7.78
2023-03-20T02:25:19.147Z,7.76
2023-03-20T02:27:01.413Z,7.74
2023-03-20T02:28:30.525Z,7.67
2023-03-20T02:30:16.285Z,7.74
2023-03-20T02:32:08.739Z,7.73
2023-03-20T02:33:44.853Z,7.72
2023-03-20T02:35:25.860Z,7.70
2023-03-20T02:36:59.322Z,7.68
2023-03-20T02:38:40.327Z,7.68
2023-03-20T02:40:16.276Z,7.67
2023-03-20T02:41:54.621Z,7.69
2023-03-20T02:43:28.161Z,7.69
2023-03-20T02:45:09.464Z,7.73
2023-03-20T02:46:52.897Z,7.77
2023-03-20T02:48:36.711Z,7.83
2023-03-20T02:50:13.311Z,7.86
2023-03-20T02:51:51.242Z,7.88
2023-03-20T02:53:24.515Z,7.92
2023-03-20T02:55:09.962Z,7.94
2023-03-20T02:56:50.629Z,7.98
2023-03-20T02:58:40.201Z,8.01
2023-03-20T03:00:25.459Z,8.02
2023-03-20T03:02:01.156Z,8.03
2023-03-20T03:03:34.698Z,8.04
2023-03-20T03:05:15.597Z,8.07
2023-03-20T03:07:07.715Z,8.07
2023-03-20T03:08:54.043Z,8.04
2023-03-20T03:10:29.796Z,8.01
2023-03-20T03:12:05.287Z,7.96
2023-03-20T03:13:36.901Z,7.94
2023-03-20T03:15:22.051Z,7.90
2023-03-20T03:17:12.273Z,7.87
2023-03-20T03:18:54.416Z,7.84
2023-03-20T03:20:39.517Z,7.81
2023-03-20T03:22:24.328Z,7.76
2023-03-20T03:23:48.759Z,7.75
2023-03-20T03:25:29.918Z,7.75
2023-03-20T03:27:15.362Z,7.73
2023-03-20T03:29:09.917Z,7.72
2023-03-20T03:31:04.966Z,7.73
2023-03-20T03:32:39.055Z,7.74
2023-03-20T03:34:14.855Z,7.71
2023-03-20T03:36:00.487Z,7.68
2023-03-20T03:37:41.556Z,7.63
2023-03-20T03:39:22.329Z,7.57
2023-03-20T03:41:15.697Z,7.52
2023-03-20T03:43:00.774Z,7.50
2023-03-20T03:44:26.864Z,7.46
2023-03-20T03:46:11.525Z,7.41
2023-03-20T03:48:02.744Z,7.37
2023-03-20T03:49:37.148Z,7.33
2023-03-20T03:51:19.911Z,7.28
2023-03-20T03:53:14.656Z,7.23
2023-03-20T03:55:09.959Z,7.23
2023-03-20T03:56:34.074Z,7.23
2023-03-20T03:58:09.925Z,7.24
2023-03-20T03:59:55.568Z,7.26
2023-03-20T04:01:43.486Z,7.29
2023-03-20T04:03:28.458Z,7.33
2023-03-20T04:04:50.483Z,7.34
2023-03-20T04:06:24.275Z,7.36
2023-03-20T04:08:00.766Z,7.36
2023-03-20T04:09:47.469Z,7.34
2023-03-20T04:11:37.292Z,7.29
2023-03-20T04:13:13.998Z,7.26
2023-03-20T04:15:03.003Z,7.25
2023-03-20T04:16:57.312Z,7.26
2023-03-20T04:18:51.904Z,7.25
2023-03-20T04:20:25.179Z,7.25
2023-03-20T04:22:02.648Z,7.26
2023-03-20T04:23:56.920Z,7.33
2023-03-20T04:25:33.935Z,7.39
2023-03-20T04:27:17.948Z,7.43
2023-03-20T04:28:42.079Z,7.46
2023-03-20T04:30:34.800Z,7.49
2023-03-20T04:32:35.934Z,7.53
2023-03-20T04:34:11.282Z,7.56
2023-03-20T04:35:55.743Z,7.57
2023-03-20T04:37:40.649Z,7.58
2023-03-20T04:39:25.965Z,7.58
2023-03-20T04:40:58.289Z,7.57
2023-03-20T04:42:20.321Z,7.58
2023-03-20T04:43:53.347Z,7.61
2023-03-20T04:45:22.412Z,7.62
2023-03-20T04:47:08.007Z,7.64
2023-03-20T04:49:02.992Z,7.66
2023-03-20T04:50:57.916Z,7.67
2023-03-20T04:52:38.756Z,7.68
2023-03-20T04:54:12.429Z,7.68
2023-03-20T04:55:48.796Z,7.69
2023-03-20T04:57:34.575Z,7.69
2023-03-20T04:59:20.171Z,7.70
2023-03-20T05:00:42.259Z,7.73
2023-03-20T05:02:15.807Z,7.77
2023-03-20T05:04:01.432Z,7.82
2023-03-20T05:05:42.098Z,7.85
2023-03-20T05:07:28.793Z,7.89
2023-03-20T05:09:20.579Z,7.93
2023-03-20T05:10:57.165Z,7.94
2023-03-20T05:12:49.975Z,7.96
2023-03-20T05:15:01.693Z,7.95
2023-03-20T05:16:50.015Z,7.98
2023-03-20T05:18:58.913Z,8.00
2023-03-20T05:21:00.920Z,8.01
2023-03-20T05:22:45.608Z,8.01
2023-03-20T05:24:39.915Z,8.03
2023-03-20T05:26:37.191Z,8.03
2023-03-20T05:28:38.835Z,8.04
2023-03-20T05:30:20.677Z,8.06
2023-03-20T05:32:05.622Z,8.06
2023-03-20T05:34:06.399Z,8.05
2023-03-20T05:36:37.921Z,7.97
2023-03-20T05:38:50.816Z,8.07
2023-03-20T05:40:50.486Z,8.09
2023-03-20T05:43:20.745Z,8.08
2023-03-20T05:45:18.289Z,8.07
2023-03-20T05:47:14.782Z,8.05
2023-03-20T05:49:01.659Z,8.05
2023-03-20T05:50:43.626Z,8.03
2023-03-20T05:52:44.242Z,8.01
2023-03-20T05:54:16.552Z,8.02
2023-03-20T05:56:31.056Z,8.00
2023-03-20T05:58:24.790Z,7.98
2023-03-20T06:00:46.266Z,7.97
2023-03-20T06:03:10.101Z,7.97
2023-03-20T06:05:03.805Z,7.96
2023-03-20T06:06:53.465Z,7.82
2023-03-20T06:08:39.831Z,7.95
2023-03-20T06:10:14.867Z,7.97
2023-03-20T06:11:48.424Z,7.97
2023-03-20T06:13:15.019Z,7.96
2023-03-20T06:15:09.900Z,7.96
2023-03-20T06:17:12.926Z,7.97
2023-03-20T06:19:06.626Z,8.00
2023-03-20T06:21:00.812Z,8.05
2023-03-20T06:22:46.310Z,8.08
2023-03-20T06:24:42.918Z,8.11
2023-03-20T06:26:36.500Z,8.18
2023-03-20T06:28:14.100Z,8.24
2023-03-20T06:30:02.181Z,8.25
2023-03-20T06:31:56.475Z,8.40
2023-03-20T06:33:45.629Z,8.47
2023-03-20T06:35:32.832Z,8.54
2023-03-20T06:37:17.762Z,8.63
2023-03-20T06:39:03.161Z,8.70
2023-03-20T06:40:51.584Z,8.79
2023-03-20T06:42:37.305Z,8.89
2023-03-20T06:44:14.811Z,8.96
2023-03-20T06:46:53.925Z,9.05
2023-03-20T06:48:28.425Z,9.15
2023-03-20T06:50:04.060Z,9.23
2023-03-20T06:51:58.902Z,9.30
2023-03-20T06:53:47.626Z,9.34
2023-03-20T06:55:14.886Z,9.39
2023-03-20T06:56:48.810Z,9.46
2023-03-20T06:58:24.592Z,9.44
2023-03-20T07:02:16.573Z,9.71
2023-03-20T07:03:50.909Z,9.83
2023-03-20T07:05:36.403Z,9.95
2023-03-20T07:07:23.521Z,10.07
2023-03-20T07:09:09.785Z,10.19
2023-03-20T07:10:32.106Z,10.29
2023-03-20T07:12:20.295Z,10.38
2023-03-20T07:13:56.519Z,10.44
2023-03-20T07:16:04.078Z,10.52
2023-03-20T07:17:50.933Z,10.64
2023-03-20T07:19:25.153Z,10.72
2023-03-20T07:21:02.262Z,10.81
2023-03-20T07:22:49.101Z,10.86
2023-03-20T07:24:47.852Z,10.97
2023-03-20T07:26:34.013Z,11.01
2023-03-20T07:28:19.805Z,11.12
2023-03-20T07:30:17.289Z,11.20
2023-03-20T07:32:02.844Z,11.31
2023-03-20T07:34:00.866Z,11.41
2023-03-20T07:35:57.913Z,11.48
2023-03-20T07:37:31.902Z,11.54
2023-03-20T07:39:08.182Z,11.56
2023-03-20T07:40:55.257Z,11.54
2023-03-20T07:42:40.921Z,11.51
2023-03-20T07:44:39.195Z,11.49
2023-03-20T07:46:38.891Z,11.48
2023-03-20T07:48:25.122Z,11.48
2023-03-20T07:50:12.620Z,11.53
2023-03-20T07:51:48.760Z,11.61
2023-03-20T07:53:35.206Z,11.66
2023-03-20T07:55:21.887Z,11.70
2023-03-20T07:56:55.666Z,11.74
2023-03-20T07:58:50.904Z,11.76
2023-03-20T08:00:40.897Z,11.78
2023-03-20T08:02:35.955Z,11.86
2023-03-20T08:04:22.659Z,11.97
2023-03-20T08:06:08.407Z,12.04
2023-03-20T08:07:53.775Z,12.09
2023-03-20T08:09:49.905Z,12.17
2023-03-20T08:11:35.294Z,12.26
2023-03-20T08:13:20.699Z,12.36
2023-03-20T08:15:05.656Z,12.45
2023-03-20T08:17:06.141Z,12.52
2023-03-20T08:19:04.430Z,12.69
2023-03-20T08:20:50.197Z,12.85
2023-03-20T08:22:36.004Z,12.91
2023-03-20T08:24:09.041Z,12.99
2023-03-20T08:25:54.707Z,13.06
2023-03-20T08:27:39.831Z,13.07
2023-03-20T08:29:25.044Z,13.13
2023-03-20T08:31:18.983Z,13.18
2023-03-20T08:33:12.242Z,13.26
2023-03-20T08:34:58.039Z,13.30
2023-03-20T08:36:44.722Z,13.36
2023-03-20T08:38:19.953Z,13.52
2023-03-20T08:39:56.659Z,13.60
2023-03-20T08:41:46.034Z,13.71
2023-03-20T08:43:40.924Z,13.92
2023-03-20T08:45:27.598Z,14.03
2023-03-20T08:47:14.387Z,14.17
2023-03-20T08:49:09.904Z,14.29
2023-03-20T08:50:51.851Z,14.26
2023-03-20T08:52:37.454Z,14.26
2023-03-20T08:54:23.102Z,14.31
2023-03-20T08:56:00.110Z,14.26
2023-03-20T08:57:53.503Z,14.10
2023-03-20T08:59:26.957Z,13.95
2023-03-20T09:01:09.995Z,13.90
2023-03-20T09:03:04.284Z,13.81
2023-03-20T09:04:38.302Z,13.85
2023-03-20T09:06:13.289Z,13.88
2023-03-20T09:07:58.599Z,13.89
2023-03-20T09:09:33.347Z,13.92
2023-03-20T09:11:20.997Z,13.99
2023-03-20T09:13:23.737Z,14.05
2023-03-20T09:15:11.499Z,14.07
2023-03-20T09:16:56.764Z,14.08
2023-03-20T09:18:33.638Z,14.10
2023-03-20T09:20:18.728Z,14.06
2023-03-20T09:21:59.971Z,14.02
2023-03-20T09:23:48.744Z,13.99
2023-03-20T09:25:23.114Z,13.99
2023-03-20T09:27:16.915Z,13.97
2023-03-20T09:28:59.911Z,13.96
2023-03-20T09:30:53.614Z,13.91
2023-03-20T09:32:47.194Z,13.83
2023-03-20T09:34:32.082Z,13.76
2023-03-20T09:36:17.650Z,13.78
2023-03-20T09:38:07.395Z,13.76
2023-03-20T09:39:41.318Z,13.72
2023-03-20T09:41:10.321Z,13.73
2023-03-20T09:42:56.679Z,13.72
2023-03-20T09:44:21.001Z,13.73
2023-03-20T09:45:57.307Z,13.78
2023-03-20T09:47:43.062Z,13.82
2023-03-20T09:49:28.284Z,13.86
2023-03-20T09:51:10.908Z,13.98
2023-03-20T09:53:04.992Z,14.07
2023-03-20T09:54:54.190Z,14.19
2023-03-20T09:56:48.901Z,14.28
2023-03-20T09:58:25.255Z,14.36
2023-03-20T10:00:19.927Z,14.36
2023-03-20T10:02:06.271Z,14.31
2023-03-20T10:03:52.344Z,14.26
2023-03-20T10:05:38.335Z,14.27
2023-03-20T10:07:13.268Z,14.24
2023-03-20T10:08:47.035Z,14.23
2023-03-20T10:10:20.763Z,14.19
2023-03-20T10:12:07.874Z,14.11
2023-03-20T10:14:02.920Z,14.04
2023-03-20T10:15:56.981Z,13.95
2023-03-20T10:17:43.048Z,13.95
2023-03-20T10:19:09.483Z,13.88
2023-03-20T10:20:59.902Z,13.86
2023-03-20T10:22:34.848Z,13.88
2023-03-20T10:24:11.539Z,13.89
2023-03-20T10:25:57.793Z,13.83
2023-03-20T10:27:42.080Z,13.81
2023-03-20T10:29:23.350Z,13.77
2023-03-20T10:30:57.312Z,13.69
2023-03-20T10:32:29.005Z,13.64
2023-03-20T10:33:53.722Z,13.61
2023-03-20T10:35:23.020Z,13.62
2023-03-20T10:37:08.451Z,13.61
2023-03-20T10:38:30.520Z,13.63
2023-03-20T10:40:05.580Z,13.61
2023-03-20T10:41:39.350Z,13.57
2023-03-20T10:43:12.401Z,13.59
2023-03-20T10:44:41.898Z,13.60
2023-03-20T10:46:08.222Z,13.56
2023-03-20T10:47:42.667Z,13.59
2023-03-20T10:49:08.890Z,13.55
2023-03-20T10:50:30.943Z,13.50
2023-03-20T10:51:53.407Z,13.42
2023-03-20T10:53:22.384Z,13.37
2023-03-20T10:54:55.738Z,13.27
2023-03-20T10:56:29.665Z,13.26
2023-03-20T10:58:05.484Z,13.18
2023-03-20T10:59:27.871Z,13.13
2023-03-20T11:01:07.176Z,13.10
2023-03-20T11:02:41.159Z,13.07
2023-03-20T11:04:10.141Z,13.04
2023-03-20T11:06:08.501Z,12.94
2023-03-20T11:08:03.910Z,12.84
2023-03-20T11:09:30.341Z,12.68
2023-03-20T11:11:03.663Z,12.58
2023-03-20T11:12:40.365Z,12.43
2023-03-20T11:14:26.061Z,12.33
2023-03-20T11:16:11.017Z,12.19
2023-03-20T11:17:52.240Z,12.14
2023-03-20T11:19:21.353Z,12.09
2023-03-20T11:20:54.743Z,12.07
2023-03-20T11:22:19.305Z,12.06
2023-03-20T11:25:52.669Z,12.20
2023-03-20T11:27:16.603Z,12.26
2023-03-20T11:28:52.675Z,12.32
2023-03-20T11:30:26.270Z,12.36
2023-03-20T11:31:59.947Z,12.41
2023-03-20T11:33:24.056Z,12.41
2023-03-20T11:35:06.068Z,12.41
2023-03-20T11:36:30.270Z,12.45
2023-03-20T11:38:06.001Z,12.46
2023-03-20T11:39:48.194Z,12.47
2023-03-20T11:41:21.631Z,12.49
2023-03-20T11:42:48.389Z,12.46
2023-03-20T11:44:14.788Z,12.41
2023-03-20T11:45:58.856Z,12.38
2023-03-20T11:47:33.289Z,12.33
2023-03-20T11:49:06.528Z,12.31
2023-03-20T11:50:28.777Z,12.31
2023-03-20T11:52:03.907Z,12.32
2023-03-20T11:53:37.778Z,12.35
2023-03-20T11:55:13.403Z,12.33
2023-03-20T11:56:58.959Z,12.28
2023-03-20T11:58:32.641Z,12.25
2023-03-20T12:00:13.276Z,12.18
2023-03-20T12:01:56.441Z,12.16
2023-03-20T12:03:18.244Z,12.10
2023-03-20T12:04:43.969Z,12.07
2023-03-20T12:06:17.734Z,12.02
2023-03-20T12:08:00.293Z,11.98
2023-03-20T12:09:29.880Z,11.93
2023-03-20T12:11:03.682Z,11.93
2023-03-20T12:12:57.356Z,11.95
2023-03-20T12:14:43.539Z,12.01
2023-03-20T12:16:17.306Z,12.09
2023-03-20T12:17:51.317Z,12.15
2023-03-20T12:19:45.903Z,12.18
2023-03-20T12:21:17.460Z,12.24
2023-03-20T12:22:59.305Z,12.29
2023-03-20T12:24:41.718Z,12.32
2023-03-20T12:26:14.826Z,12.38
2023-03-20T12:27:56.917Z,12.50
2023-03-20T12:29:32.932Z,12.56
2023-03-20T12:31:08.681Z,12.54
2023-03-20T12:32:45.298Z,12.55
2023-03-20T12:34:16.400Z,12.57
2023-03-20T12:35:50.365Z,12.57
2023-03-20T12:37:43.655Z,12.63
2023-03-20T12:39:29.470Z,12.77
2023-03-20T12:41:03.248Z,12.86
2023-03-20T12:42:27.510Z,12.99
2023-03-20T12:44:12.913Z,13.05
2023-03-20T12:45:46.873Z,13.18
2023-03-20T12:47:08.579Z,13.25
2023-03-20T12:48:33.262Z,13.27
2023-03-20T12:49:55.911Z,13.27
2023-03-20T12:51:41.072Z,13.30
2023-03-20T12:53:04.614Z,13.34
2023-03-20T12:54:26.486Z,13.42
2023-03-20T12:56:02.541Z,13.50
2023-03-20T12:57:36.241Z,13.71
2023-03-20T12:59:18.900Z,13.85
2023-03-20T13:00:52.372Z,14.00
2023-03-20T13:02:26.082Z,14.09
2023-03-20T13:04:00.047Z,14.09
2023-03-20T13:05:24.040Z,14.09
2023-03-20T13:06:59.489Z,14.08
2023-03-20T13:08:31.191Z,14.07
2023-03-20T13:09:53.243Z,14.01
2023-03-20T13:11:26.853Z,14.04
2023-03-20T13:12:56.141Z,14.03
2023-03-20T13:14:20.440Z,14.06
2023-03-20T13:15:44.841Z,14.12
2023-03-20T13:17:08.491Z,14.16
2023-03-20T13:18:44.409Z,14.15
2023-03-20T13:20:07.994Z,14.08
2023-03-20T13:21:41.682Z,14.07
2023-03-20T13:23:26.973Z,14.09
2023-03-20T13:25:09.902Z,14.06
2023-03-20T13:27:03.922Z,13.94
2023-03-20T13:28:40.234Z,13.88
2023-03-20T13:30:24.973Z,13.88
2023-03-20T13:31:47.641Z,13.86
2023-03-20T13:33:20.895Z,13.84
2023-03-20T13:34:54.566Z,13.83
2023-03-20T13:36:30.937Z,13.79
2023-03-20T13:38:04.902Z,13.73
2023-03-20T13:39:50.911Z,13.72
2023-03-20T13:41:26.537Z,13.73
2023-03-20T13:42:50.942Z,13.76
2023-03-20T13:44:15.187Z,13.79
2023-03-20T13:45:48.914Z,13.80
2023-03-20T13:47:22.627Z,13.80
2023-03-20T13:49:03.813Z,13.81
2023-03-20T13:50:25.706Z,13.80
2023-03-20T13:51:47.544Z,13.73
2023-03-20T13:53:11.624Z,13.70
2023-03-20T13:54:45.287Z,13.61
2023-03-20T13:56:09.026Z,13.54
2023-03-20T13:57:38.586Z,13.45
2023-03-20T13:59:01.121Z,13.43
2023-03-20T14:00:34.586Z,13.42
2023-03-20T14:01:56.856Z,13.43
2023-03-20T14:03:30.928Z,13.45
2023-03-20T14:04:53.224Z,13.40
2023-03-20T14:06:47.920Z,13.39
2023-03-20T14:08:11.890Z,13.38
2023-03-20T14:09:57.337Z,13.37
2023-03-20T14:11:32.937Z,13.36
2023-03-20T14:13:08.524Z,13.36
2023-03-20T14:14:44.921Z,13.33
2023-03-20T14:16:07.072Z,13.33
2023-03-20T14:17:40.764Z,13.37
2023-03-20T14:19:25.862Z,13.43
2023-03-20T14:21:20.021Z,13.46
2023-03-20T14:22:49.332Z,13.63
2023-03-20T14:24:20.452Z,13.70
2023-03-20T14:26:01.630Z,13.79
2023-03-20T14:27:45.163Z,13.88
2023-03-20T14:29:31.339Z,13.96
2023-03-20T14:31:07.076Z,13.99
2023-03-20T14:32:31.655Z,14.00
2023-03-20T14:34:12.243Z,14.07
2023-03-20T14:35:47.761Z,14.13
2023-03-20T14:37:20.188Z,14.25
2023-03-20T14:38:54.888Z,14.28
2023-03-20T14:40:28.428Z,14.28
2023-03-20T14:41:50.329Z,14.30
2023-03-20T14:43:25.745Z,14.37
2023-03-20T14:44:48.124Z,14.43
2023-03-20T14:46:33.029Z,14.37
2023-03-20T14:48:06.599Z,14.32
2023-03-20T14:50:00.588Z,14.25
2023-03-20T14:51:34.332Z,14.21
2023-03-20T14:53:16.942Z,14.15
2023-03-20T14:54:39.131Z,14.00
2023-03-20T14:56:02.090Z,13.88
2023-03-20T14:57:35.728Z,13.84
2023-03-20T14:59:24.667Z,13.65
2023-03-20T15:00:46.303Z,13.51
2023-03-20T15:02:22.663Z,13.39
2023-03-20T15:03:44.582Z,13.31
2023-03-20T15:05:17.994Z,13.21
2023-03-20T15:06:44.534Z,13.14
2023-03-20T15:08:06.204Z,13.06
2023-03-20T15:09:43.298Z,13.03
2023-03-20T15:11:05.084Z,13.01
2023-03-20T15:12:39.068Z,13.00
2023-03-20T15:14:03.132Z,13.03
2023-03-20T15:15:52.927Z,13.02
2023-03-20T15:17:46.841Z,13.03
2023-03-20T15:19:31.930Z,13.02
2023-03-20T15:21:14.439Z,13.04
2023-03-20T15:22:49.196Z,13.05
2023-03-20T15:24:23.515Z,13.02
2023-03-20T15:25:48.705Z,13.00
2023-03-20T15:27:13.409Z,12.99
2023-03-20T15:28:58.838Z,12.98
2023-03-20T15:30:32.874Z,12.96
2023-03-20T15:32:14.436Z,12.94
2023-03-20T15:33:48.217Z,12.88
2023-03-20T15:35:21.235Z,12.84
2023-03-20T15:36:43.089Z,12.83
2023-03-20T15:38:05.323Z,12.82
2023-03-20T15:39:39.736Z,12.81
2023-03-20T15:41:15.416Z,12.79
2023-03-20T15:42:38.060Z,12.79
2023-03-20T15:44:06.758Z,12.82
2023-03-20T15:45:42.994Z,12.86
2023-03-20T15:47:23.479Z,12.91
2023-03-20T15:49:08.376Z,12.91
2023-03-20T15:50:54.976Z,12.89
2023-03-20T15:52:28.726Z,12.88
2023-03-20T15:54:14.279Z,12.86
2023-03-20T15:55:38.454Z,12.76
2023-03-20T15:57:02.591Z,12.72
2023-03-20T15:58:36.059Z,12.60
2023-03-20T16:00:06.062Z,12.60
2023-03-20T16:01:28.999Z,12.52
2023-03-20T16:02:51.022Z,12.46
2023-03-20T16:04:45.942Z,12.39
2023-03-20T16:06:17.853Z,12.32
2023-03-20T16:07:51.526Z,12.26
2023-03-20T16:09:15.367Z,12.14
2023-03-20T16:11:07.850Z,12.13
2023-03-20T16:12:51.006Z,12.09
2023-03-20T16:14:15.258Z,12.08
2023-03-20T16:15:57.829Z,12.01
2023-03-20T16:17:51.083Z,12.02
2023-03-20T16:19:24.537Z,11.98
2023-03-20T16:20:59.957Z,11.93
2023-03-20T16:22:43.008Z,11.89
2023-03-20T16:24:18.527Z,11.83
2023-03-20T16:25:54.247Z,11.79
2023-03-20T16:27:28.051Z,11.73
2023-03-20T16:29:14.241Z,11.66
2023-03-20T16:30:49.173Z,11.66
2023-03-20T16:32:30.094Z,11.62
2023-03-20T16:34:10.748Z,11.61
2023-03-20T16:35:32.680Z,11.51
2023-03-20T16:37:18.048Z,11.59
2023-03-20T16:39:09.659Z,11.57
2023-03-20T16:40:59.974Z,11.57
2023-03-20T16:42:55.057Z,11.54
2023-03-20T16:44:16.734Z,11.52
2023-03-20T16:45:38.833Z,11.44
2023-03-20T16:47:23.501Z,11.44
2023-03-20T16:49:12.216Z,11.38
2023-03-20T16:51:05.820Z,11.40
2023-03-20T16:52:39.578Z,11.33
2023-03-20T16:54:15.746Z,11.33
2023-03-20T16:55:49.589Z,11.32
2023-03-20T16:57:13.569Z,11.30
2023-03-20T16:58:59.027Z,11.28
2023-03-20T17:00:32.821Z,11.25
2023-03-20T17:01:55.029Z,11.24
2023-03-20T17:03:18.776Z,11.24
2023-03-20T17:04:41.232Z,11.21
2023-03-20T17:06:25.852Z,11.20
2023-03-20T17:08:06.728Z,11.18
2023-03-20T17:09:31.613Z,11.16
2023-03-20T17:11:04.752Z,11.14
2023-03-20T17:12:38.494Z,11.14
2023-03-20T17:14:04.827Z,11.10
2023-03-20T17:15:38.899Z,11.09
2023-03-20T17:17:14.445Z,11.10
2023-03-20T17:18:36.374Z,11.09
2023-03-20T17:20:05.586Z,11.06
2023-03-20T17:21:39.376Z,11.04
2023-03-20T17:23:16.217Z,11.03
2023-03-20T17:24:38.634Z,11.03
2023-03-20T17:26:02.543Z,11.01
2023-03-20T17:27:38.216Z,10.99
2023-03-20T17:29:02.111Z,10.99
2023-03-20T17:30:23.823Z,10.99
2023-03-20T17:31:57.476Z,11.00
2023-03-20T17:33:21.446Z,10.99
2023-03-20T17:34:46.223Z,10.98
2023-03-20T17:36:10.772Z,10.99
2023-03-20T17:37:32.806Z,11.01
2023-03-20T17:39:08.645Z,10.99
2023-03-20T17:40:42.841Z,10.99
2023-03-20T17:42:16.651Z,11.00
2023-03-20T17:43:51.621Z,11.01
2023-03-20T17:45:25.385Z,10.98
2023-03-20T17:47:19.928Z,10.99
2023-03-20T17:48:42.570Z,11.01
2023-03-20T17:50:06.648Z,11.01
2023-03-20T17:51:40.977Z,11.00
2023-03-20T17:53:02.820Z,11.00
2023-03-20T17:54:39.769Z,10.99
2023-03-20T17:56:13.571Z,11.00
2023-03-20T17:57:58.965Z,10.99
2023-03-20T17:59:40.557Z,11.02
2023-03-20T18:01:14.102Z,11.04
2023-03-20T18:02:46.537Z,11.03
2023-03-20T18:04:19.967Z,11.03
2023-03-20T18:05:51.849Z,11.02
2023-03-20T18:07:25.563Z,11.01
2023-03-20T18:09:01.369Z,11.00
2023-03-20T18:10:23.143Z,10.99
2023-03-20T18:11:45.050Z,10.99
2023-03-20T18:13:07.263Z,11.01
2023-03-20T18:14:29.362Z,11.01
2023-03-20T18:15:51.583Z,11.01
2023-03-20T18:17:16.119Z,11.01
2023-03-20T18:18:45.685Z,11.00
2023-03-20T18:20:19.467Z,10.99
2023-03-20T18:21:55.208Z,10.98
2023-03-20T18:23:40.936Z,10.96
2023-03-20T18:25:16.721Z,10.98
2023-03-20T18:26:52.935Z,10.99
2023-03-20T18:28:26.745Z,10.99
2023-03-20T18:30:16.948Z,10.99
2023-03-20T18:31:50.927Z,10.99
2023-03-20T18:33:37.730Z,10.97
2023-03-20T18:35:09.553Z,10.97
2023-03-20T18:36:43.911Z,10.95
2023-03-20T18:38:24.983Z,10.95
2023-03-20T18:40:01.013Z,10.93
2023-03-20T18:41:32.879Z,10.94
2023-03-20T18:43:15.195Z,10.92
2023-03-20T18:44:47.249Z,10.89
2023-03-20T18:46:11.060Z,10.92
2023-03-20T18:47:45.826Z,10.91
2023-03-20T18:49:17.325Z,10.91
2023-03-20T18:51:02.640Z,10.94
2023-03-20T18:52:43.608Z,10.94
2023-03-20T18:54:07.897Z,10.85
2023-03-20T18:55:31.878Z,10.92
2023-03-20T18:57:16.871Z,10.92
2023-03-20T18:58:39.568Z,10.91
2023-03-20T19:00:08.394Z,10.90
2023-03-20T19:01:51.074Z,10.88
2023-03-20T19:03:24.286Z,10.87
2023-03-20T19:04:54.049Z,10.87
2023-03-20T19:06:39.335Z,10.89
2023-03-20T19:08:03.689Z,10.89
2023-03-20T19:09:37.674Z,10.88
2023-03-20T19:11:15.208Z,10.88
2023-03-20T19:12:38.638Z,10.86
2023-03-20T19:14:19.306Z,10.87
2023-03-20T19:15:43.759Z,10.85
2023-03-20T19:17:17.259Z,10.84
2023-03-20T19:18:52.861Z,10.82
2023-03-20T19:20:26.292Z,10.82
2023-03-20T19:21:59.851Z,10.82
2023-03-20T19:23:35.881Z,10.84
2023-03-20T19:25:21.589Z,10.82
2023-03-20T19:26:56.884Z,10.75
2023-03-20T19:28:50.883Z,10.81
2023-03-20T19:30:31.721Z,10.80
2023-03-20T19:32:01.366Z,10.81
2023-03-20T19:33:25.375Z,10.79
2023-03-20T19:37:05.926Z,10.76
2023-03-20T19:38:39.642Z,10.74
2023-03-20T19:40:13.010Z,10.72
2023-03-20T19:41:37.890Z,10.70
2023-03-20T19:43:11.200Z,10.68
2023-03-20T19:44:33.386Z,10.66
2023-03-20T19:46:09.678Z,10.65
2023-03-20T19:47:44.709Z,10.66
2023-03-20T19:49:20.657Z,10.64
2023-03-20T19:50:43.805Z,10.62
2023-03-20T19:52:19.641Z,10.64
2023-03-20T19:53:41.957Z,10.56
2023-03-20T19:55:06.437Z,10.64
2023-03-20T19:56:40.560Z,10.56
2023-03-20T19:58:05.125Z,10.59
2023-03-20T19:59:43.651Z,10.60
2023-03-20T20:01:18.630Z,10.62
2023-03-20T20:02:52.470Z,10.62
2023-03-20T20:04:14.841Z,10.62
2023-03-20T20:05:49.841Z,10.61
2023-03-20T20:08:00.637Z,10.60
2023-03-20T20:08:56.966Z,10.57
2023-03-20T20:10:20.865Z,10.58
2023-03-20T20:12:06.490Z,10.58
2023-03-20T20:14:00.144Z,10.59
2023-03-20T20:15:24.558Z,10.58
2023-03-20T20:16:52.505Z,10.55
2023-03-20T20:18:24.397Z,10.51
2023-03-20T20:20:20.636Z,10.49
2023-03-20T20:22:20.057Z,10.42
2023-03-20T20:24:15.830Z,10.28
2023-03-20T20:25:40.131Z,10.16
2023-03-20T20:27:17.483Z,10.11
2023-03-20T20:28:51.277Z,10.06
2023-03-20T20:30:25.135Z,10.06
2023-03-20T20:32:11.216Z,10.03
2023-03-20T20:33:36.350Z,9.93
2023-03-20T20:35:45.512Z,9.97
2023-03-20T20:38:52.181Z,9.86
2023-03-20T20:40:23.533Z,9.83
2023-03-20T20:41:59.748Z,9.82
2023-03-20T20:44:11.547Z,9.80
2023-03-20T20:45:37.373Z,9.79
2023-03-20T20:46:59.291Z,9.72
2023-03-20T20:48:21.200Z,9.72
2023-03-20T20:49:54.544Z,9.68
2023-03-20T20:51:28.641Z,9.65
2023-03-20T20:53:01.745Z,9.62
2023-03-20T20:54:38.411Z,9.61
2023-03-20T20:56:02.451Z,9.60
2023-03-20T20:57:31.695Z,9.59
2023-03-20T20:59:12.300Z,9.58
2023-03-20T21:00:50.915Z,9.56
2023-03-20T21:02:20.701Z,9.54
2023-03-20T21:03:54.642Z,9.53
2023-03-20T21:05:23.407Z,9.51
2023-03-20T21:07:08.604Z,9.49
2023-03-20T21:08:41.964Z,9.52
2023-03-20T21:10:24.417Z,9.54
2023-03-20T21:11:58.038Z,9.54
2023-03-20T21:13:27.038Z,9.54
2023-03-20T21:15:03.287Z,9.54
2023-03-20T21:16:26.555Z,9.53
2023-03-20T21:18:12.427Z,9.52
2023-03-20T21:19:37.138Z,9.51
2023-03-20T21:20:59.291Z,9.43
2023-03-20T21:22:28.454Z,9.47
2023-03-20T21:24:31.095Z,9.47